Terminal Aerodrome Forecast
Issued by NWS

Home | Current Version | Previous Version | Text Only | Print | Product List | Glossary On
Versions: 1 2 3 4 5 6 7 8 9 10 11 12 13 14 15 16 17 18 19 20 21 22
000
FTUS42 KTBW 031300 AAA
TAFPIE
TAF AMD
KPIE 031301Z 0313/0412 08004KT 6SM BR FEW002 SCT250
      TEMPO 0313/0314 3SM BR SCT002
     FM031400 09005KT P6SM SCT008 SCT250
     FM031600 11006KT P6SM SCT025 SCT250
     FM032000 27007KT P6SM SCT035 SCT250
     FM040100 VRB05KT P6SM BKN035
     FM040600 VRB03KT 3SM BR SCT010 SCT250=

USA.gov is the U.S. government's official web portal to all federal, state and local government web resources and services.